sensor_id;sensor_type;location;lat;lon;timestamp;pressure;altitude;pressure_sealevel;temperature;humidity
33422;BME280;19763;55.798;37.782;2022-11-03T00:02:12;99532.66;;;1.01;74.85
33422;BME280;19763;55.798;37.782;2022-11-03T00:04:38;99524.22;;;1.05;74.88
33422;BME280;19763;55.798;37.782;2022-11-03T00:07:03;99526.91;;;1.13;74.29
33422;BME280;19763;55.798;37.782;2022-11-03T00:09:30;99533.66;;;1.12;74.56
33422;BME280;19763;55.798;37.782;2022-11-03T00:11:55;99534.59;;;1.17;74.34
33422;BME280;19763;55.798;37.782;2022-11-03T00:14:21;99540.56;;;1.19;74.04
33422;BME280;19763;55.798;37.782;2022-11-03T00:16:47;99542.78;;;0.96;74.80
33422;BME280;19763;55.798;37.782;2022-11-03T00:19:13;99542.97;;;1.09;74.81
33422;BME280;19763;55.798;37.782;2022-11-03T00:21:40;99534.34;;;0.99;75.07
33422;BME280;19763;55.798;37.782;2022-11-03T00:24:06;99542.69;;;0.89;75.33
33422;BME280;19763;55.798;37.782;2022-11-03T00:26:34;99537.66;;;0.95;75.07
33422;BME280;19763;55.798;37.782;2022-11-03T00:29:05;99518.56;;;0.68;75.26
33422;BME280;19763;55.798;37.782;2022-11-03T00:31:33;99518.13;;;0.40;76.44
33422;BME280;19763;55.798;37.782;2022-11-03T00:33:59;99545.00;;;0.75;75.61
33422;BME280;19763;55.798;37.782;2022-11-03T00:36:27;99533.91;;;0.71;75.62
33422;BME280;19763;55.798;37.782;2022-11-03T00:38:54;99547.50;;;0.70;76.10
33422;BME280;19763;55.798;37.782;2022-11-03T00:41:20;99547.25;;;0.55;76.34
33422;BME280;19763;55.798;37.782;2022-11-03T00:43:47;99548.09;;;0.57;76.36
33422;BME280;19763;55.798;37.782;2022-11-03T00:46:13;99554.66;;;0.42;76.67
33422;BME280;19763;55.798;37.782;2022-11-03T00:48:38;99558.03;;;0.41;77.23
33422;BME280;19763;55.798;37.782;2022-11-03T00:51:08;99556.94;;;0.27;77.83
33422;BME280;19763;55.798;37.782;2022-11-03T00:53:36;99559.63;;;0.34;77.21
33422;BME280;19763;55.798;37.782;2022-11-03T00:56:03;99553.47;;;0.22;77.71
33422;BME280;19763;55.798;37.782;2022-11-03T00:58:29;99561.09;;;0.22;77.59
33422;BME280;19763;55.798;37.782;2022-11-03T01:03:25;99560.34;;;0.26;77.50
33422;BME280;19763;55.798;37.782;2022-11-03T01:05:50;99563.75;;;0.28;77.23
33422;BME280;19763;55.798;37.782;2022-11-03T01:08:35;99569.44;;;0.13;78.10
33422;BME280;19763;55.798;37.782;2022-11-03T01:11:06;99567.06;;;-0.21;79.28
33422;BME280;19763;55.798;37.782;2022-11-03T01:13:50;99567.72;;;0.12;78.16
33422;BME280;19763;55.798;37.782;2022-11-03T01:16:15;99571.44;;;0.31;78.27
33422;BME280;19763;55.798;37.782;2022-11-03T01:18:41;99567.16;;;0.30;77.07
33422;BME280;19763;55.798;37.782;2022-11-03T01:21:06;99553.63;;;0.31;76.88
33422;BME280;19763;55.798;37.782;2022-11-03T01:23:34;99566.69;;;0.49;76.64
33422;BME280;19763;55.798;37.782;2022-11-03T01:26:06;99555.63;;;0.49;76.18
33422;BME280;19763;55.798;37.782;2022-11-03T01:28:40;99551.00;;;0.26;76.60
33422;BME280;19763;55.798;37.782;2022-11-03T01:31:13;99566.06;;;0.15;77.47
33422;BME280;19763;55.798;37.782;2022-11-03T01:33:39;99570.56;;;0.29;77.51
33422;BME280;19763;55.798;37.782;2022-11-03T01:36:05;99562.97;;;0.32;77.37
33422;BME280;19763;55.798;37.782;2022-11-03T01:38:32;99569.44;;;0.13;78.11
33422;BME280;19763;55.798;37.782;2022-11-03T01:40:59;99554.25;;;0.17;77.37
33422;BME280;19763;55.798;37.782;2022-11-03T01:43:25;99563.53;;;0.17;77.23
33422;BME280;19763;55.798;37.782;2022-11-03T01:48:47;99558.22;;;0.03;76.47
33422;BME280;19763;55.798;37.782;2022-11-03T01:51:16;99542.03;;;0.01;77.42
33422;BME280;19763;55.798;37.782;2022-11-03T01:53:45;99561.94;;;0.22;76.90
33422;BME280;19763;55.798;37.782;2022-11-03T01:56:12;99560.34;;;0.26;76.97
33422;BME280;19763;55.798;37.782;2022-11-03T01:58:41;99545.84;;;0.23;77.18
33422;BME280;19763;55.798;37.782;2022-11-03T02:01:09;99559.78;;;0.44;76.97
33422;BME280;19763;55.798;37.782;2022-11-03T02:03:41;99541.06;;;0.40;76.57
33422;BME280;19763;55.798;37.782;2022-11-03T02:06:07;99556.41;;;0.45;77.08
33422;BME280;19763;55.798;37.782;2022-11-03T02:08:37;99562.47;;;0.51;75.91
33422;BME280;19763;55.798;37.782;2022-11-03T02:11:04;99565.06;;;0.53;75.76
33422;BME280;19763;55.798;37.782;2022-11-03T02:13:50;99569.50;;;0.65;75.83
33422;BME280;19763;55.798;37.782;2022-11-03T02:16:16;99572.97;;;0.70;75.94
33422;BME280;19763;55.798;37.782;2022-11-03T02:18:44;99569.47;;;0.63;76.30
33422;BME280;19763;55.798;37.782;2022-11-03T02:21:24;99571.91;;;0.56;76.05
33422;BME280;19763;55.798;37.782;2022-11-03T02:24:16;99565.56;;;0.35;76.09
33422;BME280;19763;55.798;37.782;2022-11-03T02:26:46;99549.63;;;0.45;75.92
33422;BME280;19763;55.798;37.782;2022-11-03T02:29:12;99570.31;;;0.64;75.86
33422;BME280;19763;55.798;37.782;2022-11-03T02:31:46;99564.31;;;0.59;76.27
33422;BME280;19763;55.798;37.782;2022-11-03T02:34:26;99574.56;;;0.63;76.53
33422;BME280;19763;55.798;37.782;2022-11-03T02:36:58;99566.97;;;0.68;75.08
33422;BME280;19763;55.798;37.782;2022-11-03T02:39:30;99558.50;;;0.67;75.99
33422;BME280;19763;55.798;37.782;2022-11-03T02:41:59;99560.13;;;0.64;75.70
33422;BME280;19763;55.798;37.782;2022-11-03T02:44:27;99560.25;;;0.70;75.21
33422;BME280;19763;55.798;37.782;2022-11-03T02:47:05;99542.22;;;0.61;75.62
33422;BME280;19763;55.798;37.782;2022-11-03T02:49:55;99547.53;;;0.73;75.11
33422;BME280;19763;55.798;37.782;2022-11-03T02:57:35;99548.56;;;0.83;74.75
33422;BME280;19763;55.798;37.782;2022-11-03T03:00:07;99554.47;;;0.82;74.63
33422;BME280;19763;55.798;37.782;2022-11-03T03:05:28;99547.97;;;0.47;75.81
33422;BME280;19763;55.798;37.782;2022-11-03T03:08:00;99540.44;;;0.55;75.90
33422;BME280;19763;55.798;37.782;2022-11-03T03:10:32;99550.81;;;0.66;75.59
33422;BME280;19763;55.798;37.782;2022-11-03T03:13:01;99564.47;;;0.69;75.74
33422;BME280;19763;55.798;37.782;2022-11-03T03:18:25;99558.63;;;0.77;75.31
33422;BME280;19763;55.798;37.782;2022-11-03T03:21:02;99543.16;;;0.64;75.73
33422;BME280;19763;55.798;37.782;2022-11-03T03:23:35;99554.38;;;0.76;75.29
33422;BME280;19763;55.798;37.782;2022-11-03T03:26:08;99555.06;;;0.67;75.09
33422;BME280;19763;55.798;37.782;2022-11-03T03:28:36;99576.56;;;0.81;75.45
33422;BME280;19763;55.798;37.782;2022-11-03T03:31:08;99554.22;;;0.66;74.84
33422;BME280;19763;55.798;37.782;2022-11-03T03:33:36;99576.63;;;0.36;75.91
33422;BME280;19763;55.798;37.782;2022-11-03T03:36:06;99547.69;;;0.30;76.18
33422;BME280;19763;55.798;37.782;2022-11-03T03:38:43;99554.25;;;0.19;76.13
33422;BME280;19763;55.798;37.782;2022-11-03T03:41:12;99560.59;;;0.43;75.87
33422;BME280;19763;55.798;37.782;2022-11-03T03:43:50;99563.94;;;0.37;76.38
33422;BME280;19763;55.798;37.782;2022-11-03T03:46:17;99570.72;;;0.38;76.54
33422;BME280;19763;55.798;37.782;2022-11-03T03:48:45;99571.25;;;0.20;77.08
33422;BME280;19763;55.798;37.782;2022-11-03T03:51:11;99569.91;;;0.39;76.74
33422;BME280;19763;55.798;37.782;2022-11-03T03:53:38;99576.22;;;0.14;77.31
33422;BME280;19763;55.798;37.782;2022-11-03T03:56:04;99563.03;;;-0.11;77.63
33422;BME280;19763;55.798;37.782;2022-11-03T03:58:30;99577.88;;;0.10;77.28
33422;BME280;19763;55.798;37.782;2022-11-03T04:00:56;99579.34;;;-0.01;77.59
33422;BME280;19763;55.798;37.782;2022-11-03T04:03:23;99570.28;;;0.13;78.03
33422;BME280;19763;55.798;37.782;2022-11-03T04:05:50;99569.31;;;0.07;77.87
33422;BME280;19763;55.798;37.782;2022-11-03T04:08:16;99558.28;;;0.06;77.29
33422;BME280;19763;55.798;37.782;2022-11-03T04:10:43;99568.06;;;0.32;77.15
33422;BME280;19763;55.798;37.782;2022-11-03T04:13:28;99573.28;;;0.40;76.75
33422;BME280;19763;55.798;37.782;2022-11-03T04:16:13;99579.22;;;0.37;76.90
33422;BME280;19763;55.798;37.782;2022-11-03T04:18:57;99580.09;;;0.39;76.31
33422;BME280;19763;55.798;37.782;2022-11-03T04:21:41;99572.59;;;0.48;76.02
33422;BME280;19763;55.798;37.782;2022-11-03T04:24:25;99569.69;;;0.28;76.50
33422;BME280;19763;55.798;37.782;2022-11-03T04:26:51;99582.44;;;0.30;76.70
33422;BME280;19763;55.798;37.782;2022-11-03T04:29:16;99594.91;;;0.13;76.47
33422;BME280;19763;55.798;37.782;2022-11-03T04:31:43;99586.84;;;-0.07;76.87
33422;BME280;19763;55.798;37.782;2022-11-03T04:34:11;99585.56;;;0.13;77.78
33422;BME280;19763;55.798;37.782;2022-11-03T04:36:37;99591.78;;;0.28;77.05
33422;BME280;19763;55.798;37.782;2022-11-03T04:39:15;99573.88;;;0.25;76.89
33422;BME280;19763;55.798;37.782;2022-11-03T04:41:42;99586.91;;;0.40;76.69
33422;BME280;19763;55.798;37.782;2022-11-03T04:44:14;99576.75;;;0.42;76.40
33422;BME280;19763;55.798;37.782;2022-11-03T04:46:41;99577.16;;;0.17;76.74
33422;BME280;19763;55.798;37.782;2022-11-03T04:49:12;99587.59;;;0.31;75.90
33422;BME280;19763;55.798;37.782;2022-11-03T04:51:40;99597.56;;;0.19;75.92
33422;BME280;19763;55.798;37.782;2022-11-03T04:54:17;99602.66;;;0.21;77.32
33422;BME280;19763;55.798;37.782;2022-11-03T04:56:43;99591.41;;;0.08;77.42
33422;BME280;19763;55.798;37.782;2022-11-03T04:59:13;99583.06;;;0.16;76.83
33422;BME280;19763;55.798;37.782;2022-11-03T05:01:39;99586.00;;;0.38;76.60
33422;BME280;19763;55.798;37.782;2022-11-03T05:04:14;99573.97;;;0.29;76.45
33422;BME280;19763;55.798;37.782;2022-11-03T05:06:48;99597.25;;;0.49;76.63
33422;BME280;19763;55.798;37.782;2022-11-03T05:09:18;99575.13;;;0.47;75.32
33422;BME280;19763;55.798;37.782;2022-11-03T05:11:45;99583.72;;;0.52;75.71
33422;BME280;19763;55.798;37.782;2022-11-03T05:14:25;99572.81;;;0.13;76.02
33422;BME280;19763;55.798;37.782;2022-11-03T05:16:53;99594.06;;;0.15;76.73
33422;BME280;19763;55.798;37.782;2022-11-03T05:19:23;99609.66;;;0.31;76.19
33422;BME280;19763;55.798;37.782;2022-11-03T05:21:50;99588.91;;;0.11;76.84
33422;BME280;19763;55.798;37.782;2022-11-03T05:24:18;99589.84;;;0.16;76.53
33422;BME280;19763;55.798;37.782;2022-11-03T05:26:45;99597.56;;;0.21;77.11
33422;BME280;19763;55.798;37.782;2022-11-03T05:29:18;99597.72;;;0.28;76.58
33422;BME280;19763;55.798;37.782;2022-11-03T05:31:46;99603.44;;;0.16;77.22
33422;BME280;19763;55.798;37.782;2022-11-03T05:34:36;99602.28;;;0.01;77.36
33422;BME280;19763;55.798;37.782;2022-11-03T05:39:36;99583.91;;;-0.27;77.90
33422;BME280;19763;55.798;37.782;2022-11-03T05:44:47;99594.44;;;-0.09;77.83
33422;BME280;19763;55.798;37.782;2022-11-03T05:49:43;99602.38;;;0.05;76.96
33422;BME280;19763;55.798;37.782;2022-11-03T05:52:25;99605.09;;;0.13;76.20
33422;BME280;19763;55.798;37.782;2022-11-03T05:54:52;99587.28;;;0.14;76.70
33422;BME280;19763;55.798;37.782;2022-11-03T05:57:19;99609.44;;;0.19;76.22
33422;BME280;19763;55.798;37.782;2022-11-03T05:59:46;99608.44;;;0.12;76.35
33422;BME280;19763;55.798;37.782;2022-11-03T06:02:32;99603.84;;;-0.06;77.01
33422;BME280;19763;55.798;37.782;2022-11-03T06:05:00;99605.69;;;0.03;77.15
33422;BME280;19763;55.798;37.782;2022-11-03T06:07:28;99594.69;;;0.04;77.61
33422;BME280;19763;55.798;37.782;2022-11-03T06:09:54;99610.28;;;0.19;76.50
33422;BME280;19763;55.798;37.782;2022-11-03T06:12:21;99602.38;;;0.05;76.34
33422;BME280;19763;55.798;37.782;2022-11-03T06:14:47;99608.81;;;0.32;76.60
33422;BME280;19763;55.798;37.782;2022-11-03T06:17:25;99584.16;;;0.29;75.54
33422;BME280;19763;55.798;37.782;2022-11-03T06:19:53;99621.09;;;0.07;76.56
33422;BME280;19763;55.798;37.782;2022-11-03T06:24:51;99620.94;;;0.01;77.70
33422;BME280;19763;55.798;37.782;2022-11-03T06:27:24;99606.56;;;0.02;76.75
33422;BME280;19763;55.798;37.782;2022-11-03T06:29:58;99612.81;;;0.17;77.10
33422;BME280;19763;55.798;37.782;2022-11-03T06:32:25;99618.81;;;0.23;76.27
33422;BME280;19763;55.798;37.782;2022-11-03T06:34:55;99597.50;;;0.16;76.38
33422;BME280;19763;55.798;37.782;2022-11-03T06:37:23;99612.03;;;0.22;76.69
33422;BME280;19763;55.798;37.782;2022-11-03T06:39:59;99612.59;;;0.08;76.59
33422;BME280;19763;55.798;37.782;2022-11-03T06:42:28;99623.78;;;0.15;77.12
33422;BME280;19763;55.798;37.782;2022-11-03T06:44:55;99620.44;;;0.17;76.25
33422;BME280;19763;55.798;37.782;2022-11-03T06:47:24;99609.66;;;0.31;76.37
33422;BME280;19763;55.798;37.782;2022-11-03T06:49:52;99619.13;;;0.40;75.95
33422;BME280;19763;55.798;37.782;2022-11-03T06:52:30;99625.50;;;0.62;76.58
33422;BME280;19763;55.798;37.782;2022-11-03T06:57:36;99600.03;;;0.62;74.75
33422;BME280;19763;55.798;37.782;2022-11-03T07:00:26;99594.31;;;0.77;74.27
33422;BME280;19763;55.798;37.782;2022-11-03T07:05:31;99610.56;;;0.82;74.57
33422;BME280;19763;55.798;37.782;2022-11-03T07:08:03;99623.19;;;0.74;74.05
33422;BME280;19763;55.798;37.782;2022-11-03T07:10:35;99620.84;;;0.90;74.08
33422;BME280;19763;55.798;37.782;2022-11-03T07:13:22;99625.97;;;0.90;73.85
33422;BME280;19763;55.798;37.782;2022-11-03T07:15:50;99626.03;;;0.93;73.64
33422;BME280;19763;55.798;37.782;2022-11-03T07:18:26;99627.91;;;1.05;73.37
33422;BME280;19763;55.798;37.782;2022-11-03T07:20:53;99629.66;;;1.06;74.03
33422;BME280;19763;55.798;37.782;2022-11-03T07:23:28;99612.47;;;0.97;73.95
33422;BME280;19763;55.798;37.782;2022-11-03T07:26:01;99626.13;;;0.99;74.08
33422;BME280;19763;55.798;37.782;2022-11-03T07:28:33;99608.13;;;0.91;73.47
33422;BME280;19763;55.798;37.782;2022-11-03T07:31:00;99612.25;;;0.81;73.23
33422;BME280;19763;55.798;37.782;2022-11-03T07:33:30;99626.81;;;0.89;73.98
33422;BME280;19763;55.798;37.782;2022-11-03T07:35:57;99626.94;;;0.96;73.87
33422;BME280;19763;55.798;37.782;2022-11-03T07:38:25;99626.59;;;0.76;73.53
33422;BME280;19763;55.798;37.782;2022-11-03T07:40:55;99604.88;;;0.49;74.74
33422;BME280;19763;55.798;37.782;2022-11-03T07:43:24;99638.63;;;0.85;74.41
33422;BME280;19763;55.798;37.782;2022-11-03T07:45:57;99645.56;;;0.94;73.60
33422;BME280;19763;55.798;37.782;2022-11-03T07:48:37;99640.59;;;1.00;73.62
33422;BME280;19763;55.798;37.782;2022-11-03T07:53:48;99633.84;;;1.03;73.34
33422;BME280;19763;55.798;37.782;2022-11-03T07:56:18;99641.69;;;1.14;72.67
33422;BME280;19763;55.798;37.782;2022-11-03T07:58:46;99639.16;;;1.16;72.55
33422;BME280;19763;55.798;37.782;2022-11-03T08:01:26;99641.47;;;1.02;72.80
33422;BME280;19763;55.798;37.782;2022-11-03T08:03:57;99637.34;;;1.10;72.31
33422;BME280;19763;55.798;37.782;2022-11-03T08:06:24;99638.28;;;1.15;72.76
33422;BME280;19763;55.798;37.782;2022-11-03T08:08:49;99632.81;;;0.94;73.20
33422;BME280;19763;55.798;37.782;2022-11-03T08:11:15;99643.97;;;0.99;72.36
33422;BME280;19763;55.798;37.782;2022-11-03T08:13:41;99639.88;;;1.07;72.08
33422;BME280;19763;55.798;37.782;2022-11-03T08:16:07;99627.91;;;1.03;72.37
33422;BME280;19763;55.798;37.782;2022-11-03T08:18:32;99634.97;;;1.23;73.03
33422;BME280;19763;55.798;37.782;2022-11-03T08:20:58;99638.38;;;1.22;72.98
33422;BME280;19763;55.798;37.782;2022-11-03T08:23:24;99632.88;;;0.97;72.72
33422;BME280;19763;55.798;37.782;2022-11-03T08:25:49;99635.91;;;1.28;71.81
33422;BME280;19763;55.798;37.782;2022-11-03T08:28:15;99642.72;;;1.27;72.07
33422;BME280;19763;55.798;37.782;2022-11-03T08:30:40;99633.31;;;1.23;72.14
33422;BME280;19763;55.798;37.782;2022-11-03T08:33:06;99632.13;;;1.02;72.18
33422;BME280;19763;55.798;37.782;2022-11-03T08:35:32;99635.81;;;1.20;72.12
33422;BME280;19763;55.798;37.782;2022-11-03T08:37:58;99632.41;;;1.21;72.36
33422;BME280;19763;55.798;37.782;2022-11-03T08:40:23;99628.22;;;1.23;72.40
33422;BME280;19763;55.798;37.782;2022-11-03T08:42:49;99636.78;;;1.28;72.12
33422;BME280;19763;55.798;37.782;2022-11-03T08:45:15;99635.72;;;1.15;72.29
33422;BME280;19763;55.798;37.782;2022-11-03T08:47:41;99623.91;;;1.20;72.52
33422;BME280;19763;55.798;37.782;2022-11-03T08:50:06;99626.63;;;1.30;72.23
33422;BME280;19763;55.798;37.782;2022-11-03T08:52:32;99621.56;;;1.33;72.07
33422;BME280;19763;55.798;37.782;2022-11-03T08:54:58;99628.44;;;1.38;71.78
33422;BME280;19763;55.798;37.782;2022-11-03T08:57:23;99624.00;;;1.28;72.18
33422;BME280;19763;55.798;37.782;2022-11-03T08:59:49;99627.38;;;1.24;72.24
33422;BME280;19763;55.798;37.782;2022-11-03T09:02:16;99622.31;;;1.27;72.38
33422;BME280;19763;55.798;37.782;2022-11-03T09:04:42;99620.47;;;1.17;73.05
33422;BME280;19763;55.798;37.782;2022-11-03T09:07:08;99628.34;;;1.34;72.37
33422;BME280;19763;55.798;37.782;2022-11-03T09:09:33;99619.03;;;1.36;72.52
33422;BME280;19763;55.798;37.782;2022-11-03T09:11:59;99620.56;;;1.25;72.36
33422;BME280;19763;55.798;37.782;2022-11-03T09:14:24;99618.25;;;1.38;71.75
33422;BME280;19763;55.798;37.782;2022-11-03T09:16:50;99624.19;;;1.39;72.35
33422;BME280;19763;55.798;37.782;2022-11-03T09:19:15;99623.41;;;1.43;71.50
33422;BME280;19763;55.798;37.782;2022-11-03T09:21:41;99630.22;;;1.43;71.43
33422;BME280;19763;55.798;37.782;2022-11-03T09:24:07;99626.88;;;1.48;71.00
33422;BME280;19763;55.798;37.782;2022-11-03T09:26:32;99621.81;;;1.51;71.24
33422;BME280;19763;55.798;37.782;2022-11-03T09:28:58;99622.59;;;1.46;71.47
33422;BME280;19763;55.798;37.782;2022-11-03T09:31:23;99626.78;;;1.42;71.37
33422;BME280;19763;55.798;37.782;2022-11-03T09:33:53;99624.22;;;1.41;71.50
33422;BME280;19763;55.798;37.782;2022-11-03T09:36:19;99630.97;;;1.37;72.02
33422;BME280;19763;55.798;37.782;2022-11-03T09:38:44;99622.63;;;1.47;71.45
33422;BME280;19763;55.798;37.782;2022-11-03T09:41:10;99627.53;;;1.35;72.00
33422;BME280;19763;55.798;37.782;2022-11-03T09:43:45;99619.91;;;1.38;72.25
33422;BME280;19763;55.798;37.782;2022-11-03T09:46:12;99620.69;;;1.34;72.99
33422;BME280;19763;55.798;37.782;2022-11-03T09:48:40;99618.31;;;1.45;72.58
33422;BME280;19763;55.798;37.782;2022-11-03T09:51:08;99597.66;;;1.28;71.92
33422;BME280;19763;55.798;37.782;2022-11-03T09:53:35;99615.78;;;1.46;71.75
33422;BME280;19763;55.798;37.782;2022-11-03T09:56:01;99621.59;;;1.36;72.42
33422;BME280;19763;55.798;37.782;2022-11-03T09:58:26;99614.69;;;1.29;72.70
33422;BME280;19763;55.798;37.782;2022-11-03T10:00:52;99612.34;;;1.43;72.29
33422;BME280;19763;55.798;37.782;2022-11-03T10:03:18;99617.56;;;1.52;71.95
33422;BME280;19763;55.798;37.782;2022-11-03T10:05:45;99615.00;;;1.50;72.28
33422;BME280;19763;55.798;37.782;2022-11-03T10:08:26;99603.78;;;1.39;72.51
33422;BME280;19763;55.798;37.782;2022-11-03T10:10:54;99619.88;;;1.36;72.57
33422;BME280;19763;55.798;37.782;2022-11-03T10:13:29;99610.66;;;1.43;71.84
33422;BME280;19763;55.798;37.782;2022-11-03T10:15:56;99613.31;;;1.52;72.65
33422;BME280;19763;55.798;37.782;2022-11-03T10:18:25;99600.41;;;1.40;71.99
33422;BME280;19763;55.798;37.782;2022-11-03T10:20:51;99615.00;;;1.50;72.30
33422;BME280;19763;55.798;37.782;2022-11-03T10:23:17;99620.94;;;1.49;71.79
33422;BME280;19763;55.798;37.782;2022-11-03T10:25:43;99628.41;;;1.37;71.37
33422;BME280;19763;55.798;37.782;2022-11-03T10:28:25;99620.09;;;1.50;71.79
33422;BME280;19763;55.798;37.782;2022-11-03T10:31:17;99605.53;;;1.42;72.31
33422;BME280;19763;55.798;37.782;2022-11-03T10:33:54;99613.34;;;1.54;71.93
33422;BME280;19763;55.798;37.782;2022-11-03T10:36:27;99619.97;;;1.41;72.39
33422;BME280;19763;55.798;37.782;2022-11-03T10:38:54;99630.41;;;1.58;72.41
33422;BME280;19763;55.798;37.782;2022-11-03T10:46:38;99620.25;;;1.60;72.02
33422;BME280;19763;55.798;37.782;2022-11-03T10:49:11;99624.53;;;1.65;72.26
33422;BME280;19763;55.798;37.782;2022-11-03T10:51:39;99615.22;;;1.67;72.04
33422;BME280;19763;55.798;37.782;2022-11-03T10:54:10;99605.56;;;1.46;72.11
33422;BME280;19763;55.798;37.782;2022-11-03T10:56:37;99615.03;;;1.53;72.28
33422;BME280;19763;55.798;37.782;2022-11-03T10:59:03;99616.84;;;1.61;72.79
33422;BME280;19763;55.798;37.782;2022-11-03T11:01:29;99613.16;;;1.40;72.75
33422;BME280;19763;55.798;37.782;2022-11-03T11:03:54;99613.31;;;1.52;72.54
33422;BME280;19763;55.798;37.782;2022-11-03T11:08:49;99581.00;;;1.53;72.50
33422;BME280;19763;55.798;37.782;2022-11-03T11:11:19;99609.97;;;1.58;71.97
33422;BME280;19763;55.798;37.782;2022-11-03T11:16:54;99602.00;;;1.35;72.58
33422;BME280;19763;55.798;37.782;2022-11-03T11:19:21;99613.03;;;1.34;73.14
33422;BME280;19763;55.798;37.782;2022-11-03T11:21:48;99613.19;;;1.43;72.71
33422;BME280;19763;55.798;37.782;2022-11-03T11:29:59;99611.84;;;1.68;71.85
33422;BME280;19763;55.798;37.782;2022-11-03T11:32:57;99613.41;;;1.59;72.06
33422;BME280;19763;55.798;37.782;2022-11-03T11:37:52;99589.28;;;1.38;71.57
33422;BME280;19763;55.798;37.782;2022-11-03T11:48:31;99624.53;;;1.65;71.66
33422;BME280;19763;55.798;37.782;2022-11-03T11:50:58;99617.59;;;1.53;72.48
33422;BME280;19763;55.798;37.782;2022-11-03T11:53:25;99620.13;;;1.53;72.22
33422;BME280;19763;55.798;37.782;2022-11-03T11:55:59;99608.09;;;1.43;72.57
33422;BME280;19763;55.798;37.782;2022-11-03T12:01:02;99619.25;;;1.50;72.24
33422;BME280;19763;55.798;37.782;2022-11-03T12:03:31;99603.00;;;1.43;72.91
33422;BME280;19763;55.798;37.782;2022-11-03T12:05:58;99612.25;;;1.38;72.52
33422;BME280;19763;55.798;37.782;2022-11-03T12:08:28;99601.22;;;1.37;72.37
33422;BME280;19763;55.798;37.782;2022-11-03T12:10:56;99610.66;;;1.43;72.30
33422;BME280;19763;55.798;37.782;2022-11-03T12:13:47;99618.47;;;1.55;72.03
33422;BME280;19763;55.798;37.782;2022-11-03T12:16:35;99623.25;;;1.34;72.52
33422;BME280;19763;55.798;37.782;2022-11-03T12:19:43;99618.72;;;1.14;72.82
33422;BME280;19763;55.798;37.782;2022-11-03T12:22:09;99622.16;;;1.18;72.91
33422;BME280;19763;55.798;37.782;2022-11-03T12:24:38;99602.47;;;1.09;73.15
33422;BME280;19763;55.798;37.782;2022-11-03T12:29:49;99612.25;;;1.38;73.50
33422;BME280;19763;55.798;37.782;2022-11-03T12:32:15;99617.50;;;1.46;72.77
33422;BME280;19763;55.798;37.782;2022-11-03T12:34:41;99623.38;;;1.42;72.93
33422;BME280;19763;55.798;37.782;2022-11-03T12:37:07;99617.44;;;1.41;72.44
33422;BME280;19763;55.798;37.782;2022-11-03T12:39:33;99620.09;;;1.50;72.25
33422;BME280;19763;55.798;37.782;2022-11-03T12:41:58;99613.41;;;1.59;72.19
33422;BME280;19763;55.798;37.782;2022-11-03T12:44:24;99615.91;;;1.54;72.39
33422;BME280;19763;55.798;37.782;2022-11-03T12:46:50;99621.00;;;1.54;72.09
33422;BME280;19763;55.798;37.782;2022-11-03T12:49:15;99621.00;;;1.54;72.10
33422;BME280;19763;55.798;37.782;2022-11-03T12:51:41;99622.63;;;1.47;72.12
33422;BME280;19763;55.798;37.782;2022-11-03T12:54:06;99623.50;;;1.52;72.28
33422;BME280;19763;55.798;37.782;2022-11-03T12:56:32;99626.78;;;1.42;72.53
33422;BME280;19763;55.798;37.782;2022-11-03T12:58:58;99622.47;;;1.38;72.60
33422;BME280;19763;55.798;37.782;2022-11-03T13:01:23;99621.69;;;1.44;72.77
33422;BME280;19763;55.798;37.782;2022-11-03T13:03:49;99629.13;;;1.28;72.92
33422;BME280;19763;55.798;37.782;2022-11-03T13:06:15;99622.28;;;1.24;72.99
33422;BME280;19763;55.798;37.782;2022-11-03T13:08:40;99620.63;;;1.29;73.20
33422;BME280;19763;55.798;37.782;2022-11-03T13:11:06;99619.81;;;1.30;73.29
33422;BME280;19763;55.798;37.782;2022-11-03T13:13:51;99626.66;;;1.33;73.23
33422;BME280;19763;55.798;37.782;2022-11-03T13:16:16;99616.53;;;1.39;72.89
33422;BME280;19763;55.798;37.782;2022-11-03T13:18:42;99619.03;;;1.34;72.58
33422;BME280;19763;55.798;37.782;2022-11-03T13:21:08;99623.94;;;1.22;72.85
33422;BME280;19763;55.798;37.782;2022-11-03T13:23:33;99617.78;;;1.09;73.42
33422;BME280;19763;55.798;37.782;2022-11-03T13:25:59;99623.94;;;1.24;73.39
33422;BME280;19763;55.798;37.782;2022-11-03T13:28:24;99626.69;;;1.36;73.25
33422;BME280;19763;55.798;37.782;2022-11-03T13:30:50;99630.47;;;1.05;73.70
33422;BME280;19763;55.798;37.782;2022-11-03T13:33:16;99626.50;;;1.24;73.64
33422;BME280;19763;55.798;37.782;2022-11-03T13:35:41;99624.06;;;1.30;73.33
33422;BME280;19763;55.798;37.782;2022-11-03T13:38:07;99628.69;;;0.99;73.83
33422;BME280;19763;55.798;37.782;2022-11-03T13:40:32;99624.72;;;1.18;73.48
33422;BME280;19763;55.798;37.782;2022-11-03T13:42:58;99629.19;;;1.31;73.87
33422;BME280;19763;55.798;37.782;2022-11-03T13:45:23;99636.06;;;1.35;73.98
33422;BME280;19763;55.798;37.782;2022-11-03T13:47:49;99631.88;;;1.42;73.27
33422;BME280;19763;55.798;37.782;2022-11-03T13:50:15;99642.84;;;1.36;72.98
33422;BME280;19763;55.798;37.782;2022-11-03T13:52:40;99630.91;;;1.34;73.71
33422;BME280;19763;55.798;37.782;2022-11-03T13:55:06;99645.44;;;1.40;73.80
33422;BME280;19763;55.798;37.782;2022-11-03T13:57:32;99637.00;;;1.44;72.95
33422;BME280;19763;55.798;37.782;2022-11-03T13:59:57;99637.78;;;1.40;73.17
33422;BME280;19763;55.798;37.782;2022-11-03T14:02:23;99640.44;;;1.46;73.22
33422;BME280;19763;55.798;37.782;2022-11-03T14:04:48;99642.84;;;1.35;73.27
33422;BME280;19763;55.798;37.782;2022-11-03T14:07:14;99644.69;;;1.45;73.13
33422;BME280;19763;55.798;37.782;2022-11-03T14:09:39;99625.09;;;1.43;72.72
33422;BME280;19763;55.798;37.782;2022-11-03T14:12:06;99630.13;;;1.38;73.24
33422;BME280;19763;55.798;37.782;2022-11-03T14:14:49;99639.66;;;1.50;73.17
33422;BME280;19763;55.798;37.782;2022-11-03T14:17:15;99605.88;;;1.10;73.45
33422;BME280;19763;55.798;37.782;2022-11-03T14:19:41;99639.31;;;1.27;73.79